sensor_id;sensor_type;location;lat;lon;timestamp;P1;durP1;ratioP1;P2;durP2;ratioP2
4057;SDS011;2044;48.692;9.020;2023-05-16T00:00:28;15.97;;;10.33;;
4057;SDS011;2044;48.692;9.020;2023-05-16T00:03:00;15.87;;;10.90;;
4057;SDS011;2044;48.692;9.020;2023-05-16T00:05:27;16.90;;;11.10;;
4057;SDS011;2044;48.692;9.020;2023-05-16T00:07:55;16.07;;;10.50;;
4057;SDS011;2044;48.692;9.020;2023-05-16T00:10:21;16.40;;;10.70;;
4057;SDS011;2044;48.692;9.020;2023-05-16T00:12:48;18.43;;;11.00;;
4057;SDS011;2044;48.692;9.020;2023-05-16T00:15:16;24.07;;;12.50;;
4057;SDS011;2044;48.692;9.020;2023-05-16T00:17:44;26.70;;;13.40;;
4057;SDS011;2044;48.692;9.020;2023-05-16T00:20:12;23.43;;;12.90;;
4057;SDS011;2044;48.692;9.020;2023-05-16T00:22:41;25.40;;;13.70;;
4057;SDS011;2044;48.692;9.020;2023-05-16T00:25:08;25.13;;;14.37;;
4057;SDS011;2044;48.692;9.020;2023-05-16T00:27:34;24.93;;;13.27;;
4057;SDS011;2044;48.692;9.020;2023-05-16T00:30:01;32.67;;;15.10;;
4057;SDS011;2044;48.692;9.020;2023-05-16T00:32:28;25.23;;;14.80;;
4057;SDS011;2044;48.692;9.020;2023-05-16T00:34:55;25.00;;;13.80;;
4057;SDS011;2044;48.692;9.020;2023-05-16T00:37:23;22.80;;;12.90;;
4057;SDS011;2044;48.692;9.020;2023-05-16T00:39:50;25.93;;;15.70;;
4057;SDS011;2044;48.692;9.020;2023-05-16T00:42:17;31.67;;;14.40;;
4057;SDS011;2044;48.692;9.020;2023-05-16T00:44:44;24.30;;;14.40;;
4057;SDS011;2044;48.692;9.020;2023-05-16T00:47:11;29.23;;;14.67;;
4057;SDS011;2044;48.692;9.020;2023-05-16T00:49:38;24.27;;;13.43;;
4057;SDS011;2044;48.692;9.020;2023-05-16T00:52:05;24.87;;;14.17;;
4057;SDS011;2044;48.692;9.020;2023-05-16T00:54:33;26.77;;;14.23;;
4057;SDS011;2044;48.692;9.020;2023-05-16T00:57:00;28.93;;;14.63;;
4057;SDS011;2044;48.692;9.020;2023-05-16T00:59:28;27.40;;;14.57;;
4057;SDS011;2044;48.692;9.020;2023-05-16T01:01:55;24.43;;;13.87;;
4057;SDS011;2044;48.692;9.020;2023-05-16T01:04:21;29.47;;;15.50;;
4057;SDS011;2044;48.692;9.020;2023-05-16T01:06:48;29.33;;;15.83;;
4057;SDS011;2044;48.692;9.020;2023-05-16T01:09:16;26.80;;;14.50;;
4057;SDS011;2044;48.692;9.020;2023-05-16T01:11:46;34.60;;;16.40;;
4057;SDS011;2044;48.692;9.020;2023-05-16T01:14:19;34.03;;;16.23;;
4057;SDS011;2044;48.692;9.020;2023-05-16T01:16:53;35.10;;;16.70;;
4057;SDS011;2044;48.692;9.020;2023-05-16T01:19:29;34.10;;;17.53;;
4057;SDS011;2044;48.692;9.020;2023-05-16T01:22:10;33.10;;;17.00;;
4057;SDS011;2044;48.692;9.020;2023-05-16T01:24:43;34.10;;;17.70;;
4057;SDS011;2044;48.692;9.020;2023-05-16T01:27:20;36.20;;;18.20;;
4057;SDS011;2044;48.692;9.020;2023-05-16T01:29:49;35.07;;;17.73;;
4057;SDS011;2044;48.692;9.020;2023-05-16T01:32:20;35.00;;;17.23;;
4057;SDS011;2044;48.692;9.020;2023-05-16T01:34:48;33.20;;;17.37;;
4057;SDS011;2044;48.692;9.020;2023-05-16T01:37:17;37.40;;;16.67;;
4057;SDS011;2044;48.692;9.020;2023-05-16T01:39:51;37.50;;;17.60;;
4057;SDS011;2044;48.692;9.020;2023-05-16T01:42:24;34.90;;;17.20;;
4057;SDS011;2044;48.692;9.020;2023-05-16T01:44:58;38.60;;;17.17;;
4057;SDS011;2044;48.692;9.020;2023-05-16T01:47:31;37.90;;;18.20;;
4057;SDS011;2044;48.692;9.020;2023-05-16T01:50:02;35.50;;;17.10;;
4057;SDS011;2044;48.692;9.020;2023-05-16T01:52:34;37.13;;;18.07;;
4057;SDS011;2044;48.692;9.020;2023-05-16T01:55:06;37.00;;;17.83;;
4057;SDS011;2044;48.692;9.020;2023-05-16T01:57:38;43.07;;;17.80;;
4057;SDS011;2044;48.692;9.020;2023-05-16T02:00:06;39.37;;;18.33;;
4057;SDS011;2044;48.692;9.020;2023-05-16T02:02:34;33.90;;;17.60;;
4057;SDS011;2044;48.692;9.020;2023-05-16T02:05:00;34.70;;;17.83;;
4057;SDS011;2044;48.692;9.020;2023-05-16T02:07:27;40.83;;;18.93;;
4057;SDS011;2044;48.692;9.020;2023-05-16T02:09:54;38.70;;;18.60;;
4057;SDS011;2044;48.692;9.020;2023-05-16T02:12:20;40.90;;;19.13;;
4057;SDS011;2044;48.692;9.020;2023-05-16T02:14:48;39.43;;;17.87;;
4057;SDS011;2044;48.692;9.020;2023-05-16T02:17:15;39.43;;;18.17;;
4057;SDS011;2044;48.692;9.020;2023-05-16T02:19:42;40.37;;;19.07;;
4057;SDS011;2044;48.692;9.020;2023-05-16T02:22:08;47.87;;;19.50;;
4057;SDS011;2044;48.692;9.020;2023-05-16T02:24:35;43.93;;;19.20;;
4057;SDS011;2044;48.692;9.020;2023-05-16T02:27:02;40.53;;;18.67;;
4057;SDS011;2044;48.692;9.020;2023-05-16T02:29:29;44.10;;;19.43;;
4057;SDS011;2044;48.692;9.020;2023-05-16T02:31:57;48.37;;;20.03;;
4057;SDS011;2044;48.692;9.020;2023-05-16T02:34:24;48.40;;;20.60;;
4057;SDS011;2044;48.692;9.020;2023-05-16T02:36:51;47.60;;;21.53;;
4057;SDS011;2044;48.692;9.020;2023-05-16T02:39:17;51.40;;;21.00;;
4057;SDS011;2044;48.692;9.020;2023-05-16T02:41:44;53.40;;;22.17;;
4057;SDS011;2044;48.692;9.020;2023-05-16T02:44:11;51.90;;;21.00;;
4057;SDS011;2044;48.692;9.020;2023-05-16T02:46:37;47.37;;;20.73;;
4057;SDS011;2044;48.692;9.020;2023-05-16T02:49:05;52.10;;;21.47;;
4057;SDS011;2044;48.692;9.020;2023-05-16T02:51:32;49.57;;;23.20;;
4057;SDS011;2044;48.692;9.020;2023-05-16T02:53:59;55.60;;;22.57;;
4057;SDS011;2044;48.692;9.020;2023-05-16T02:56:25;55.80;;;22.57;;
4057;SDS011;2044;48.692;9.020;2023-05-16T02:58:53;53.80;;;22.03;;
4057;SDS011;2044;48.692;9.020;2023-05-16T03:01:20;54.97;;;23.13;;
4057;SDS011;2044;48.692;9.020;2023-05-16T03:03:47;51.97;;;21.30;;
4057;SDS011;2044;48.692;9.020;2023-05-16T03:06:14;55.33;;;21.80;;
4057;SDS011;2044;48.692;9.020;2023-05-16T03:08:41;58.90;;;23.80;;
4057;SDS011;2044;48.692;9.020;2023-05-16T03:11:08;59.83;;;22.67;;
4057;SDS011;2044;48.692;9.020;2023-05-16T03:13:35;59.77;;;23.30;;
4057;SDS011;2044;48.692;9.020;2023-05-16T03:16:01;55.67;;;21.40;;
4057;SDS011;2044;48.692;9.020;2023-05-16T03:18:28;57.10;;;24.30;;
4057;SDS011;2044;48.692;9.020;2023-05-16T03:20:55;55.53;;;23.87;;
4057;SDS011;2044;48.692;9.020;2023-05-16T03:23:23;60.30;;;24.80;;
4057;SDS011;2044;48.692;9.020;2023-05-16T03:25:51;59.17;;;23.50;;
4057;SDS011;2044;48.692;9.020;2023-05-16T03:28:17;60.00;;;24.13;;
4057;SDS011;2044;48.692;9.020;2023-05-16T03:30:44;56.03;;;23.73;;
4057;SDS011;2044;48.692;9.020;2023-05-16T03:33:11;64.87;;;25.70;;
4057;SDS011;2044;48.692;9.020;2023-05-16T03:35:38;53.77;;;24.83;;
4057;SDS011;2044;48.692;9.020;2023-05-16T03:38:05;54.40;;;22.97;;
4057;SDS011;2044;48.692;9.020;2023-05-16T03:40:33;64.40;;;26.13;;
4057;SDS011;2044;48.692;9.020;2023-05-16T03:43:00;62.10;;;23.47;;
4057;SDS011;2044;48.692;9.020;2023-05-16T03:45:28;55.43;;;22.67;;
4057;SDS011;2044;48.692;9.020;2023-05-16T03:47:54;64.30;;;25.53;;
4057;SDS011;2044;48.692;9.020;2023-05-16T03:50:21;66.10;;;26.17;;
4057;SDS011;2044;48.692;9.020;2023-05-16T03:52:49;64.37;;;24.80;;
4057;SDS011;2044;48.692;9.020;2023-05-16T03:55:18;67.73;;;25.50;;
4057;SDS011;2044;48.692;9.020;2023-05-16T03:57:46;73.50;;;26.30;;
4057;SDS011;2044;48.692;9.020;2023-05-16T04:00:14;67.70;;;24.37;;
4057;SDS011;2044;48.692;9.020;2023-05-16T04:02:41;58.43;;;25.70;;
4057;SDS011;2044;48.692;9.020;2023-05-16T04:05:08;65.47;;;26.17;;
4057;SDS011;2044;48.692;9.020;2023-05-16T04:07:35;69.00;;;25.20;;
4057;SDS011;2044;48.692;9.020;2023-05-16T04:10:02;67.60;;;25.73;;
4057;SDS011;2044;48.692;9.020;2023-05-16T04:12:30;67.37;;;27.33;;
4057;SDS011;2044;48.692;9.020;2023-05-16T04:14:58;66.47;;;26.67;;
4057;SDS011;2044;48.692;9.020;2023-05-16T04:17:25;68.33;;;26.27;;
4057;SDS011;2044;48.692;9.020;2023-05-16T04:19:51;71.37;;;26.07;;
4057;SDS011;2044;48.692;9.020;2023-05-16T04:22:19;63.33;;;24.90;;
4057;SDS011;2044;48.692;9.020;2023-05-16T04:24:46;61.27;;;25.33;;
4057;SDS011;2044;48.692;9.020;2023-05-16T04:27:13;56.30;;;24.27;;
4057;SDS011;2044;48.692;9.020;2023-05-16T04:29:39;65.30;;;24.63;;
4057;SDS011;2044;48.692;9.020;2023-05-16T04:32:08;76.43;;;28.33;;
4057;SDS011;2044;48.692;9.020;2023-05-16T04:34:35;69.23;;;25.70;;
4057;SDS011;2044;48.692;9.020;2023-05-16T04:37:03;63.13;;;26.20;;
4057;SDS011;2044;48.692;9.020;2023-05-16T04:39:31;72.03;;;27.50;;
4057;SDS011;2044;48.692;9.020;2023-05-16T04:41:58;64.33;;;24.47;;
4057;SDS011;2044;48.692;9.020;2023-05-16T04:44:25;60.93;;;24.53;;
4057;SDS011;2044;48.692;9.020;2023-05-16T04:46:52;65.00;;;26.10;;
4057;SDS011;2044;48.692;9.020;2023-05-16T04:49:20;67.57;;;24.13;;
4057;SDS011;2044;48.692;9.020;2023-05-16T04:51:47;65.90;;;26.40;;
4057;SDS011;2044;48.692;9.020;2023-05-16T04:54:14;68.80;;;25.50;;
4057;SDS011;2044;48.692;9.020;2023-05-16T04:56:41;63.50;;;25.70;;
4057;SDS011;2044;48.692;9.020;2023-05-16T04:59:07;71.17;;;25.60;;
4057;SDS011;2044;48.692;9.020;2023-05-16T05:01:34;59.13;;;24.67;;
4057;SDS011;2044;48.692;9.020;2023-05-16T05:04:01;59.90;;;22.37;;
4057;SDS011;2044;48.692;9.020;2023-05-16T05:06:29;58.97;;;24.53;;
4057;SDS011;2044;48.692;9.020;2023-05-16T05:08:56;57.63;;;25.23;;
4057;SDS011;2044;48.692;9.020;2023-05-16T05:11:23;59.37;;;27.07;;
4057;SDS011;2044;48.692;9.020;2023-05-16T05:13:51;63.63;;;24.13;;
4057;SDS011;2044;48.692;9.020;2023-05-16T05:16:17;58.30;;;26.67;;
4057;SDS011;2044;48.692;9.020;2023-05-16T05:18:44;66.33;;;24.80;;
4057;SDS011;2044;48.692;9.020;2023-05-16T05:21:11;62.53;;;25.00;;
4057;SDS011;2044;48.692;9.020;2023-05-16T05:23:39;55.60;;;23.43;;
4057;SDS011;2044;48.692;9.020;2023-05-16T05:26:05;59.60;;;23.70;;
4057;SDS011;2044;48.692;9.020;2023-05-16T05:28:32;53.40;;;23.20;;
4057;SDS011;2044;48.692;9.020;2023-05-16T05:30:59;60.00;;;24.80;;
4057;SDS011;2044;48.692;9.020;2023-05-16T05:33:26;58.93;;;24.03;;
4057;SDS011;2044;48.692;9.020;2023-05-16T05:35:53;59.53;;;23.77;;
4057;SDS011;2044;48.692;9.020;2023-05-16T05:38:20;55.63;;;22.67;;
4057;SDS011;2044;48.692;9.020;2023-05-16T05:40:48;61.90;;;23.63;;
4057;SDS011;2044;48.692;9.020;2023-05-16T05:43:15;56.23;;;23.83;;
4057;SDS011;2044;48.692;9.020;2023-05-16T05:45:41;55.23;;;24.10;;
4057;SDS011;2044;48.692;9.020;2023-05-16T05:48:09;45.80;;;20.90;;
4057;SDS011;2044;48.692;9.020;2023-05-16T05:50:36;55.33;;;23.50;;
4057;SDS011;2044;48.692;9.020;2023-05-16T05:53:03;49.60;;;20.20;;
4057;SDS011;2044;48.692;9.020;2023-05-16T05:55:29;49.13;;;21.50;;
4057;SDS011;2044;48.692;9.020;2023-05-16T05:57:57;55.27;;;23.27;;
4057;SDS011;2044;48.692;9.020;2023-05-16T06:00:24;45.43;;;20.83;;
4057;SDS011;2044;48.692;9.020;2023-05-16T06:02:51;54.30;;;23.40;;
4057;SDS011;2044;48.692;9.020;2023-05-16T06:05:18;47.80;;;21.50;;
4057;SDS011;2044;48.692;9.020;2023-05-16T06:07:45;53.20;;;22.43;;
4057;SDS011;2044;48.692;9.020;2023-05-16T06:10:12;44.00;;;21.63;;
4057;SDS011;2044;48.692;9.020;2023-05-16T06:12:38;59.00;;;22.10;;
4057;SDS011;2044;48.692;9.020;2023-05-16T06:15:07;47.27;;;20.97;;
4057;SDS011;2044;48.692;9.020;2023-05-16T06:17:35;46.10;;;19.77;;
4057;SDS011;2044;48.692;9.020;2023-05-16T06:20:02;48.00;;;20.77;;
4057;SDS011;2044;48.692;9.020;2023-05-16T06:22:29;44.93;;;19.87;;
4057;SDS011;2044;48.692;9.020;2023-05-16T06:24:56;37.40;;;17.67;;
4057;SDS011;2044;48.692;9.020;2023-05-16T06:27:23;42.90;;;19.70;;
4057;SDS011;2044;48.692;9.020;2023-05-16T06:29:50;44.07;;;20.23;;
4057;SDS011;2044;48.692;9.020;2023-05-16T06:32:18;37.10;;;18.07;;
4057;SDS011;2044;48.692;9.020;2023-05-16T06:34:45;38.67;;;17.90;;
4057;SDS011;2044;48.692;9.020;2023-05-16T06:37:12;38.60;;;18.10;;
4057;SDS011;2044;48.692;9.020;2023-05-16T06:39:39;41.10;;;19.30;;
4057;SDS011;2044;48.692;9.020;2023-05-16T06:42:05;39.00;;;18.87;;
4057;SDS011;2044;48.692;9.020;2023-05-16T06:44:32;39.43;;;18.03;;
4057;SDS011;2044;48.692;9.020;2023-05-16T06:46:59;33.43;;;16.30;;
4057;SDS011;2044;48.692;9.020;2023-05-16T06:49:27;41.27;;;19.50;;
4057;SDS011;2044;48.692;9.020;2023-05-16T06:51:53;32.47;;;16.23;;
4057;SDS011;2044;48.692;9.020;2023-05-16T06:54:20;32.10;;;16.50;;
4057;SDS011;2044;48.692;9.020;2023-05-16T06:56:47;33.20;;;17.10;;
4057;SDS011;2044;48.692;9.020;2023-05-16T06:59:13;33.63;;;15.50;;
4057;SDS011;2044;48.692;9.020;2023-05-16T07:01:40;31.67;;;16.80;;
4057;SDS011;2044;48.692;9.020;2023-05-16T07:04:07;32.93;;;17.73;;
4057;SDS011;2044;48.692;9.020;2023-05-16T07:06:35;26.53;;;13.20;;
4057;SDS011;2044;48.692;9.020;2023-05-16T07:09:02;34.00;;;15.30;;
4057;SDS011;2044;48.692;9.020;2023-05-16T07:11:29;33.07;;;16.40;;
4057;SDS011;2044;48.692;9.020;2023-05-16T07:13:55;31.43;;;15.40;;
4057;SDS011;2044;48.692;9.020;2023-05-16T07:16:22;32.00;;;13.63;;
4057;SDS011;2044;48.692;9.020;2023-05-16T07:18:52;31.20;;;15.60;;
4057;SDS011;2044;48.692;9.020;2023-05-16T07:21:19;32.00;;;15.10;;
4057;SDS011;2044;48.692;9.020;2023-05-16T07:23:47;33.00;;;16.07;;
4057;SDS011;2044;48.692;9.020;2023-05-16T07:26:14;35.73;;;15.73;;
4057;SDS011;2044;48.692;9.020;2023-05-16T07:28:41;30.03;;;14.27;;
4057;SDS011;2044;48.692;9.020;2023-05-16T07:31:08;31.63;;;15.27;;
4057;SDS011;2044;48.692;9.020;2023-05-16T07:33:35;24.97;;;12.87;;
4057;SDS011;2044;48.692;9.020;2023-05-16T07:36:01;25.17;;;12.90;;
4057;SDS011;2044;48.692;9.020;2023-05-16T07:38:28;27.20;;;13.17;;
4057;SDS011;2044;48.692;9.020;2023-05-16T07:40:57;23.17;;;12.10;;
4057;SDS011;2044;48.692;9.020;2023-05-16T07:43:24;25.43;;;12.40;;
4057;SDS011;2044;48.692;9.020;2023-05-16T07:45:50;22.90;;;11.90;;
4057;SDS011;2044;48.692;9.020;2023-05-16T07:48:17;21.37;;;11.10;;
4057;SDS011;2044;48.692;9.020;2023-05-16T07:50:45;24.13;;;11.27;;
4057;SDS011;2044;48.692;9.020;2023-05-16T07:53:11;21.10;;;10.97;;
4057;SDS011;2044;48.692;9.020;2023-05-16T07:55:38;20.17;;;10.70;;
4057;SDS011;2044;48.692;9.020;2023-05-16T07:58:06;18.10;;;10.43;;
4057;SDS011;2044;48.692;9.020;2023-05-16T08:00:33;23.53;;;10.90;;
4057;SDS011;2044;48.692;9.020;2023-05-16T08:03:00;24.63;;;11.83;;
4057;SDS011;2044;48.692;9.020;2023-05-16T08:05:26;21.47;;;11.73;;
4057;SDS011;2044;48.692;9.020;2023-05-16T08:07:54;21.07;;;10.43;;
4057;SDS011;2044;48.692;9.020;2023-05-16T08:10:20;29.93;;;12.43;;
4057;SDS011;2044;48.692;9.020;2023-05-16T08:12:48;28.00;;;12.30;;
4057;SDS011;2044;48.692;9.020;2023-05-16T08:15:16;23.93;;;12.10;;
4057;SDS011;2044;48.692;9.020;2023-05-16T08:17:42;21.87;;;11.80;;
4057;SDS011;2044;48.692;9.020;2023-05-16T08:20:10;23.20;;;13.13;;
4057;SDS011;2044;48.692;9.020;2023-05-16T08:22:37;20.07;;;11.67;;
4057;SDS011;2044;48.692;9.020;2023-05-16T08:25:04;19.90;;;11.40;;
4057;SDS011;2044;48.692;9.020;2023-05-16T08:27:33;19.30;;;11.00;;
4057;SDS011;2044;48.692;9.020;2023-05-16T08:30:00;22.80;;;13.10;;
4057;SDS011;2044;48.692;9.020;2023-05-16T08:32:28;16.73;;;9.83;;
4057;SDS011;2044;48.692;9.020;2023-05-16T08:34:55;22.83;;;11.67;;
4057;SDS011;2044;48.692;9.020;2023-05-16T08:37:22;19.67;;;10.27;;
4057;SDS011;2044;48.692;9.020;2023-05-16T08:39:48;24.00;;;10.67;;
4057;SDS011;2044;48.692;9.020;2023-05-16T08:42:15;19.50;;;9.37;;
4057;SDS011;2044;48.692;9.020;2023-05-16T08:44:42;20.80;;;11.10;;
4057;SDS011;2044;48.692;9.020;2023-05-16T08:47:10;21.27;;;11.40;;
4057;SDS011;2044;48.692;9.020;2023-05-16T08:49:39;23.80;;;11.97;;
4057;SDS011;2044;48.692;9.020;2023-05-16T08:52:08;20.17;;;10.80;;
4057;SDS011;2044;48.692;9.020;2023-05-16T08:54:36;17.70;;;9.57;;
4057;SDS011;2044;48.692;9.020;2023-05-16T08:57:04;25.83;;;12.20;;
4057;SDS011;2044;48.692;9.020;2023-05-16T08:59:32;21.63;;;11.43;;
4057;SDS011;2044;48.692;9.020;2023-05-16T09:01:59;20.40;;;11.90;;
4057;SDS011;2044;48.692;9.020;2023-05-16T09:04:26;23.23;;;11.70;;
4057;SDS011;2044;48.692;9.020;2023-05-16T09:06:55;22.73;;;11.27;;
4057;SDS011;2044;48.692;9.020;2023-05-16T09:09:22;23.43;;;11.20;;
4057;SDS011;2044;48.692;9.020;2023-05-16T09:11:49;21.47;;;11.43;;
4057;SDS011;2044;48.692;9.020;2023-05-16T09:14:16;22.70;;;11.70;;
4057;SDS011;2044;48.692;9.020;2023-05-16T09:16:43;23.70;;;10.57;;
4057;SDS011;2044;48.692;9.020;2023-05-16T09:19:11;24.60;;;12.30;;
4057;SDS011;2044;48.692;9.020;2023-05-16T09:21:39;24.13;;;11.20;;
4057;SDS011;2044;48.692;9.020;2023-05-16T09:24:08;26.30;;;11.53;;
4057;SDS011;2044;48.692;9.020;2023-05-16T09:26:36;25.33;;;12.57;;
4057;SDS011;2044;48.692;9.020;2023-05-16T09:29:09;26.17;;;12.10;;
4057;SDS011;2044;48.692;9.020;2023-05-16T09:31:36;24.27;;;11.30;;
4057;SDS011;2044;48.692;9.020;2023-05-16T09:34:03;30.00;;;13.50;;
4057;SDS011;2044;48.692;9.020;2023-05-16T09:36:35;24.13;;;12.20;;
4057;SDS011;2044;48.692;9.020;2023-05-16T09:39:02;30.10;;;12.73;;
4057;SDS011;2044;48.692;9.020;2023-05-16T09:41:33;24.30;;;13.33;;
4057;SDS011;2044;48.692;9.020;2023-05-16T09:44:02;28.00;;;13.10;;
4057;SDS011;2044;48.692;9.020;2023-05-16T09:46:29;21.20;;;11.53;;
4057;SDS011;2044;48.692;9.020;2023-05-16T09:48:56;21.07;;;10.70;;
4057;SDS011;2044;48.692;9.020;2023-05-16T09:51:23;21.50;;;11.03;;
4057;SDS011;2044;48.692;9.020;2023-05-16T09:53:49;19.33;;;9.00;;
4057;SDS011;2044;48.692;9.020;2023-05-16T09:56:17;19.00;;;10.53;;
4057;SDS011;2044;48.692;9.020;2023-05-16T09:58:45;24.83;;;11.80;;
4057;SDS011;2044;48.692;9.020;2023-05-16T10:01:11;22.90;;;12.33;;
4057;SDS011;2044;48.692;9.020;2023-05-16T10:03:39;20.60;;;11.73;;
4057;SDS011;2044;48.692;9.020;2023-05-16T10:06:07;27.67;;;11.83;;
4057;SDS011;2044;48.692;9.020;2023-05-16T10:08:34;18.77;;;10.10;;
4057;SDS011;2044;48.692;9.020;2023-05-16T10:11:02;21.47;;;11.03;;
4057;SDS011;2044;48.692;9.020;2023-05-16T10:13:31;21.67;;;11.10;;
4057;SDS011;2044;48.692;9.020;2023-05-16T10:16:01;22.53;;;10.03;;
4057;SDS011;2044;48.692;9.020;2023-05-16T10:18:32;18.73;;;10.13;;
4057;SDS011;2044;48.692;9.020;2023-05-16T10:21:02;21.10;;;10.80;;
4057;SDS011;2044;48.692;9.020;2023-05-16T10:23:30;21.80;;;10.30;;
4057;SDS011;2044;48.692;9.020;2023-05-16T10:25:59;21.03;;;10.30;;
4057;SDS011;2044;48.692;9.020;2023-05-16T10:28:27;14.00;;;8.40;;
4057;SDS011;2044;48.692;9.020;2023-05-16T10:30:54;22.07;;;8.97;;
4057;SDS011;2044;48.692;9.020;2023-05-16T10:33:23;17.50;;;10.03;;
4057;SDS011;2044;48.692;9.020;2023-05-16T10:35:50;18.53;;;8.53;;
4057;SDS011;2044;48.692;9.020;2023-05-16T10:38:18;17.23;;;9.27;;
4057;SDS011;2044;48.692;9.020;2023-05-16T10:40:46;18.40;;;8.60;;
4057;SDS011;2044;48.692;9.020;2023-05-16T10:43:21;19.03;;;9.37;;
4057;SDS011;2044;48.692;9.020;2023-05-16T10:45:52;20.73;;;9.90;;
4057;SDS011;2044;48.692;9.020;2023-05-16T10:48:28;13.30;;;8.60;;
4057;SDS011;2044;48.692;9.020;2023-05-16T10:50:55;14.40;;;7.87;;
4057;SDS011;2044;48.692;9.020;2023-05-16T10:53:28;15.10;;;8.20;;
4057;SDS011;2044;48.692;9.020;2023-05-16T10:56:06;18.27;;;9.70;;
4057;SDS011;2044;48.692;9.020;2023-05-16T10:58:41;18.73;;;10.33;;
4057;SDS011;2044;48.692;9.020;2023-05-16T11:01:19;15.40;;;8.30;;
4057;SDS011;2044;48.692;9.020;2023-05-16T11:04:01;16.60;;;8.17;;
4057;SDS011;2044;48.692;9.020;2023-05-16T11:06:31;15.40;;;8.00;;
4057;SDS011;2044;48.692;9.020;2023-05-16T11:09:05;12.40;;;7.90;;
4057;SDS011;2044;48.692;9.020;2023-05-16T11:11:40;11.80;;;6.93;;
4057;SDS011;2044;48.692;9.020;2023-05-16T11:14:08;9.77;;;5.97;;
4057;SDS011;2044;48.692;9.020;2023-05-16T11:16:44;11.00;;;6.30;;
4057;SDS011;2044;48.692;9.020;2023-05-16T11:19:27;8.43;;;5.57;;
4057;SDS011;2044;48.692;9.020;2023-05-16T11:22:05;9.40;;;5.83;;
4057;SDS011;2044;48.692;9.020;2023-05-16T11:24:47;9.63;;;5.40;;
4057;SDS011;2044;48.692;9.020;2023-05-16T11:27:19;7.97;;;5.37;;
4057;SDS011;2044;48.692;9.020;2023-05-16T11:29:47;10.63;;;5.70;;
4057;SDS011;2044;48.692;9.020;2023-05-16T11:32:17;11.43;;;5.63;;
4057;SDS011;2044;48.692;9.020;2023-05-16T11:34:47;12.63;;;6.80;;
4057;SDS011;2044;48.692;9.020;2023-05-16T11:37:14;12.83;;;6.47;;
4057;SDS011;2044;48.692;9.020;2023-05-16T11:39:41;12.60;;;6.60;;
4057;SDS011;2044;48.692;9.020;2023-05-16T11:42:09;11.00;;;5.80;;
4057;SDS011;2044;48.692;9.020;2023-05-16T11:44:37;10.03;;;4.93;;
4057;SDS011;2044;48.692;9.020;2023-05-16T11:47:04;10.63;;;5.80;;
4057;SDS011;2044;48.692;9.020;2023-05-16T11:49:31;9.10;;;4.67;;
4057;SDS011;2044;48.692;9.020;2023-05-16T11:52:00;11.00;;;5.60;;
4057;SDS011;2044;48.692;9.020;2023-05-16T11:54:27;8.30;;;3.63;;
4057;SDS011;2044;48.692;9.020;2023-05-16T11:56:54;8.50;;;5.03;;
4057;SDS011;2044;48.692;9.020;2023-05-16T11:59:21;8.50;;;4.10;;
4057;SDS011;2044;48.692;9.020;2023-05-16T12:01:48;8.73;;;5.00;;
4057;SDS011;2044;48.692;9.020;2023-05-16T12:04:15;11.37;;;5.10;;
4057;SDS011;2044;48.692;9.020;2023-05-16T12:06:44;11.63;;;5.83;;
4057;SDS011;2044;48.692;9.020;2023-05-16T12:09:25;9.23;;;6.10;;
4057;SDS011;2044;48.692;9.020;2023-05-16T12:11:52;11.43;;;6.00;;
4057;SDS011;2044;48.692;9.020;2023-05-16T12:14:19;7.40;;;4.63;;
4057;SDS011;2044;48.692;9.020;2023-05-16T12:16:46;8.93;;;5.73;;
4057;SDS011;2044;48.692;9.020;2023-05-16T12:19:13;9.03;;;5.10;;
4057;SDS011;2044;48.692;9.020;2023-05-16T12:21:40;8.77;;;5.40;;
4057;SDS011;2044;48.692;9.020;2023-05-16T12:24:08;7.17;;;4.13;;
4057;SDS011;2044;48.692;9.020;2023-05-16T12:26:38;7.40;;;4.67;;
4057;SDS011;2044;48.692;9.020;2023-05-16T12:29:06;7.37;;;4.43;;
4057;SDS011;2044;48.692;9.020;2023-05-16T12:31:35;8.33;;;5.10;;
4057;SDS011;2044;48.692;9.020;2023-05-16T12:34:02;8.47;;;5.60;;
4057;SDS011;2044;48.692;9.020;2023-05-16T12:36:30;6.80;;;3.97;;
4057;SDS011;2044;48.692;9.020;2023-05-16T12:38:58;10.53;;;4.50;;
4057;SDS011;2044;48.692;9.020;2023-05-16T12:41:26;5.97;;;4.03;;
4057;SDS011;2044;48.692;9.020;2023-05-16T12:44:06;5.13;;;3.47;;
4057;SDS011;2044;48.692;9.020;2023-05-16T12:46:39;8.50;;;4.30;;
4057;SDS011;2044;48.692;9.020;2023-05-16T12:49:06;6.60;;;3.90;;
4057;SDS011;2044;48.692;9.020;2023-05-16T12:51:33;5.27;;;3.73;;
4057;SDS011;2044;48.692;9.020;2023-05-16T12:54:06;8.07;;;4.87;;
4057;SDS011;2044;48.692;9.020;2023-05-16T12:56:33;4.20;;;3.10;;
4057;SDS011;2044;48.692;9.020;2023-05-16T12:59:00;5.50;;;3.93;;
4057;SDS011;2044;48.692;9.020;2023-05-16T13:01:28;4.07;;;3.00;;
4057;SDS011;2044;48.692;9.020;2023-05-16T13:03:55;2.70;;;2.10;;
4057;SDS011;2044;48.692;9.020;2023-05-16T13:06:21;5.20;;;3.30;;
4057;SDS011;2044;48.692;9.020;2023-05-16T13:08:48;5.17;;;3.80;;
4057;SDS011;2044;48.692;9.020;2023-05-16T13:11:15;6.90;;;3.47;;
4057;SDS011;2044;48.692;9.020;2023-05-16T13:13:43;7.10;;;4.37;;
4057;SDS011;2044;48.692;9.020;2023-05-16T13:16:09;6.60;;;3.70;;
4057;SDS011;2044;48.692;9.020;2023-05-16T13:18:37;7.17;;;4.67;;
4057;SDS011;2044;48.692;9.020;2023-05-16T13:21:04;6.80;;;3.60;;
4057;SDS011;2044;48.692;9.020;2023-05-16T13:23:31;7.17;;;3.77;;
4057;SDS011;2044;48.692;9.020;2023-05-16T13:25:58;5.40;;;3.27;;
4057;SDS011;2044;48.692;9.020;2023-05-16T13:28:24;8.63;;;3.97;;
4057;SDS011;2044;48.692;9.020;2023-05-16T13:30:51;6.43;;;4.37;;
4057;SDS011;2044;48.692;9.020;2023-05-16T13:33:18;4.30;;;3.10;;
4057;SDS011;2044;48.692;9.020;2023-05-16T13:35:46;4.47;;;3.10;;
4057;SDS011;2044;48.692;9.020;2023-05-16T13:38:13;5.50;;;3.60;;
4057;SDS011;2044;48.692;9.020;2023-05-16T13:40:40;5.33;;;3.10;;
4057;SDS011;2044;48.692;9.020;2023-05-16T13:43:07;4.37;;;2.97;;
4057;SDS011;2044;48.692;9.020;2023-05-16T13:45:33;4.63;;;2.80;;
4057;SDS011;2044;48.692;9.020;2023-05-16T13:48:01;4.60;;;2.80;;
4057;SDS011;2044;48.692;9.020;2023-05-16T13:50:28;3.93;;;2.50;;
4057;SDS011;2044;48.692;9.020;2023-05-16T13:52:56;4.43;;;2.87;;
4057;SDS011;2044;48.692;9.020;2023-05-16T13:55:23;4.27;;;2.20;;
4057;SDS011;2044;48.692;9.020;2023-05-16T13:57:49;4.13;;;2.57;;
4057;SDS011;2044;48.692;9.020;2023-05-16T14:00:16;4.23;;;1.90;;
4057;SDS011;2044;48.692;9.020;2023-05-16T14:02:44;3.30;;;2.33;;
4057;SDS011;2044;48.692;9.020;2023-05-16T14:05:11;6.13;;;2.80;;
4057;SDS011;2044;48.692;9.020;2023-05-16T14:07:37;2.30;;;1.77;;
4057;SDS011;2044;48.692;9.020;2023-05-16T14:10:07;2.37;;;1.93;;
4057;SDS011;2044;48.692;9.020;2023-05-16T14:12:34;5.10;;;2.50;;
4057;SDS011;2044;48.692;9.020;2023-05-16T14:15:01;3.40;;;2.37;;
4057;SDS011;2044;48.692;9.020;2023-05-16T14:17:28;3.77;;;2.40;;
4057;SDS011;2044;48.692;9.020;2023-05-16T14:19:54;5.63;;;2.53;;
4057;SDS011;2044;48.692;9.020;2023-05-16T14:22:21;3.87;;;1.87;;
4057;SDS011;2044;48.692;9.020;2023-05-16T14:24:48;2.83;;;1.87;;
4057;SDS011;2044;48.692;9.020;2023-05-16T14:27:16;2.63;;;2.30;;
4057;SDS011;2044;48.692;9.020;2023-05-16T14:29:43;2.00;;;1.80;;
4057;SDS011;2044;48.692;9.020;2023-05-16T14:32:10;2.40;;;2.17;;
4057;SDS011;2044;48.692;9.020;2023-05-16T14:34:38;5.93;;;2.20;;
4057;SDS011;2044;48.692;9.020;2023-05-16T14:37:05;2.97;;;1.83;;
4057;SDS011;2044;48.692;9.020;2023-05-16T14:39:34;3.90;;;2.57;;
4057;SDS011;2044;48.692;9.020;2023-05-16T14:42:00;3.63;;;2.30;;
4057;SDS011;2044;48.692;9.020;2023-05-16T14:44:28;1.60;;;1.50;;
4057;SDS011;2044;48.692;9.020;2023-05-16T14:46:55;2.10;;;2.00;;
4057;SDS011;2044;48.692;9.020;2023-05-16T14:49:22;2.00;;;1.83;;
4057;SDS011;2044;48.692;9.020;2023-05-16T14:51:48;4.27;;;2.40;;
4057;SDS011;2044;48.692;9.020;2023-05-16T14:54:15;2.53;;;2.33;;
4057;SDS011;2044;48.692;9.020;2023-05-16T14:56:43;3.67;;;2.50;;
4057;SDS011;2044;48.692;9.020;2023-05-16T14:59:10;4.57;;;2.50;;